sensor_id;sensor_type;location;lat;lon;timestamp;P1;durP1;ratioP1;P2;durP2;ratioP2
2434;SDS011;1228;51.022;6.764;2024-02-14T00:01:34;4.33;;;3.60;;
2434;SDS011;1228;51.022;6.764;2024-02-14T00:04:01;5.77;;;3.53;;
2434;SDS011;1228;51.022;6.764;2024-02-14T00:06:27;4.10;;;3.50;;
2434;SDS011;1228;51.022;6.764;2024-02-14T00:08:53;3.60;;;3.30;;
2434;SDS011;1228;51.022;6.764;2024-02-14T00:11:19;5.33;;;3.00;;
2434;SDS011;1228;51.022;6.764;2024-02-14T00:13:44;3.70;;;3.50;;
2434;SDS011;1228;51.022;6.764;2024-02-14T00:16:10;3.90;;;3.60;;
2434;SDS011;1228;51.022;6.764;2024-02-14T00:18:35;3.60;;;3.30;;
2434;SDS011;1228;51.022;6.764;2024-02-14T00:21:01;3.70;;;3.40;;
2434;SDS011;1228;51.022;6.764;2024-02-14T00:23:27;4.10;;;3.80;;
2434;SDS011;1228;51.022;6.764;2024-02-14T00:25:53;3.43;;;3.23;;
2434;SDS011;1228;51.022;6.764;2024-02-14T00:28:18;5.57;;;3.40;;
2434;SDS011;1228;51.022;6.764;2024-02-14T00:30:44;4.23;;;3.10;;
2434;SDS011;1228;51.022;6.764;2024-02-14T00:33:09;3.80;;;3.50;;
2434;SDS011;1228;51.022;6.764;2024-02-14T00:35:35;4.33;;;3.57;;
2434;SDS011;1228;51.022;6.764;2024-02-14T00:38:00;3.40;;;3.20;;
2434;SDS011;1228;51.022;6.764;2024-02-14T00:40:26;3.73;;;3.43;;
2434;SDS011;1228;51.022;6.764;2024-02-14T00:42:52;3.63;;;3.30;;
2434;SDS011;1228;51.022;6.764;2024-02-14T00:45:17;4.20;;;3.60;;
2434;SDS011;1228;51.022;6.764;2024-02-14T00:47:43;3.60;;;3.40;;
2434;SDS011;1228;51.022;6.764;2024-02-14T00:50:08;3.53;;;3.33;;
2434;SDS011;1228;51.022;6.764;2024-02-14T00:52:34;3.50;;;3.10;;
2434;SDS011;1228;51.022;6.764;2024-02-14T00:55:00;3.53;;;3.23;;
2434;SDS011;1228;51.022;6.764;2024-02-14T00:57:28;3.80;;;3.50;;
2434;SDS011;1228;51.022;6.764;2024-02-14T00:59:54;4.27;;;3.87;;
2434;SDS011;1228;51.022;6.764;2024-02-14T01:02:21;3.90;;;3.63;;
2434;SDS011;1228;51.022;6.764;2024-02-14T01:04:47;3.33;;;3.13;;
2434;SDS011;1228;51.022;6.764;2024-02-14T01:07:13;3.77;;;3.47;;
2434;SDS011;1228;51.022;6.764;2024-02-14T01:09:38;4.70;;;3.27;;
2434;SDS011;1228;51.022;6.764;2024-02-14T01:12:04;3.03;;;2.87;;
2434;SDS011;1228;51.022;6.764;2024-02-14T01:14:30;3.30;;;3.10;;
2434;SDS011;1228;51.022;6.764;2024-02-14T01:16:56;3.30;;;3.03;;
2434;SDS011;1228;51.022;6.764;2024-02-14T01:19:22;6.20;;;3.00;;
2434;SDS011;1228;51.022;6.764;2024-02-14T01:21:49;3.87;;;3.50;;
2434;SDS011;1228;51.022;6.764;2024-02-14T01:24:15;3.50;;;3.30;;
2434;SDS011;1228;51.022;6.764;2024-02-14T01:26:41;3.20;;;3.00;;
2434;SDS011;1228;51.022;6.764;2024-02-14T01:29:07;3.40;;;3.10;;
2434;SDS011;1228;51.022;6.764;2024-02-14T01:31:33;3.23;;;3.03;;
2434;SDS011;1228;51.022;6.764;2024-02-14T01:33:59;3.60;;;3.10;;
2434;SDS011;1228;51.022;6.764;2024-02-14T01:36:27;3.13;;;2.93;;
2434;SDS011;1228;51.022;6.764;2024-02-14T01:38:55;3.30;;;3.10;;
2434;SDS011;1228;51.022;6.764;2024-02-14T01:41:21;3.40;;;3.20;;
2434;SDS011;1228;51.022;6.764;2024-02-14T01:43:47;3.57;;;3.23;;
2434;SDS011;1228;51.022;6.764;2024-02-14T01:46:14;3.40;;;3.10;;
2434;SDS011;1228;51.022;6.764;2024-02-14T01:48:41;4.03;;;3.60;;
2434;SDS011;1228;51.022;6.764;2024-02-14T01:51:08;3.40;;;3.20;;
2434;SDS011;1228;51.022;6.764;2024-02-14T01:53:36;3.43;;;3.23;;
2434;SDS011;1228;51.022;6.764;2024-02-14T01:56:03;3.20;;;3.00;;
2434;SDS011;1228;51.022;6.764;2024-02-14T01:58:30;3.30;;;3.13;;
2434;SDS011;1228;51.022;6.764;2024-02-14T02:00:56;3.43;;;3.20;;
2434;SDS011;1228;51.022;6.764;2024-02-14T02:03:23;3.50;;;3.30;;
2434;SDS011;1228;51.022;6.764;2024-02-14T02:05:49;3.70;;;3.50;;
2434;SDS011;1228;51.022;6.764;2024-02-14T02:08:16;3.57;;;3.40;;
2434;SDS011;1228;51.022;6.764;2024-02-14T02:10:41;3.80;;;3.60;;
2434;SDS011;1228;51.022;6.764;2024-02-14T02:13:07;3.93;;;3.70;;
2434;SDS011;1228;51.022;6.764;2024-02-14T02:15:34;3.70;;;3.50;;
2434;SDS011;1228;51.022;6.764;2024-02-14T02:18:00;4.00;;;3.70;;
2434;SDS011;1228;51.022;6.764;2024-02-14T02:20:30;3.70;;;3.50;;
2434;SDS011;1228;51.022;6.764;2024-02-14T02:22:57;3.60;;;3.40;;
2434;SDS011;1228;51.022;6.764;2024-02-14T02:25:22;4.10;;;3.80;;
2434;SDS011;1228;51.022;6.764;2024-02-14T02:27:49;3.47;;;3.27;;
2434;SDS011;1228;51.022;6.764;2024-02-14T02:30:15;3.50;;;3.30;;
2434;SDS011;1228;51.022;6.764;2024-02-14T02:32:41;3.30;;;3.10;;
2434;SDS011;1228;51.022;6.764;2024-02-14T02:35:07;3.63;;;3.43;;
2434;SDS011;1228;51.022;6.764;2024-02-14T02:37:34;3.33;;;3.03;;
2434;SDS011;1228;51.022;6.764;2024-02-14T02:40:00;3.40;;;3.10;;
2434;SDS011;1228;51.022;6.764;2024-02-14T02:42:26;2.97;;;2.80;;
2434;SDS011;1228;51.022;6.764;2024-02-14T02:44:51;3.17;;;2.97;;
2434;SDS011;1228;51.022;6.764;2024-02-14T02:47:17;3.17;;;2.97;;
2434;SDS011;1228;51.022;6.764;2024-02-14T02:49:43;3.20;;;3.00;;
2434;SDS011;1228;51.022;6.764;2024-02-14T02:52:09;3.40;;;3.20;;
2434;SDS011;1228;51.022;6.764;2024-02-14T02:54:35;4.23;;;3.93;;
2434;SDS011;1228;51.022;6.764;2024-02-14T02:57:01;5.77;;;5.17;;
2434;SDS011;1228;51.022;6.764;2024-02-14T02:59:28;5.53;;;5.03;;
2434;SDS011;1228;51.022;6.764;2024-02-14T03:01:54;3.50;;;3.30;;
2434;SDS011;1228;51.022;6.764;2024-02-14T03:04:20;4.60;;;4.20;;
2434;SDS011;1228;51.022;6.764;2024-02-14T03:06:46;4.80;;;4.37;;
2434;SDS011;1228;51.022;6.764;2024-02-14T03:09:12;6.50;;;4.67;;
2434;SDS011;1228;51.022;6.764;2024-02-14T03:11:39;12.33;;;7.30;;
2434;SDS011;1228;51.022;6.764;2024-02-14T03:14:05;14.50;;;8.27;;
2434;SDS011;1228;51.022;6.764;2024-02-14T03:16:32;9.20;;;6.03;;
2434;SDS011;1228;51.022;6.764;2024-02-14T03:18:58;11.50;;;6.83;;
2434;SDS011;1228;51.022;6.764;2024-02-14T03:21:24;20.30;;;10.23;;
2434;SDS011;1228;51.022;6.764;2024-02-14T03:23:50;7.20;;;4.70;;
2434;SDS011;1228;51.022;6.764;2024-02-14T03:26:15;4.10;;;3.80;;
2434;SDS011;1228;51.022;6.764;2024-02-14T03:28:41;5.27;;;4.50;;
2434;SDS011;1228;51.022;6.764;2024-02-14T03:31:06;4.00;;;3.70;;
2434;SDS011;1228;51.022;6.764;2024-02-14T03:33:32;4.07;;;3.70;;
2434;SDS011;1228;51.022;6.764;2024-02-14T03:35:58;3.43;;;3.23;;
2434;SDS011;1228;51.022;6.764;2024-02-14T03:38:24;3.77;;;3.53;;
2434;SDS011;1228;51.022;6.764;2024-02-14T03:40:53;5.40;;;5.00;;
2434;SDS011;1228;51.022;6.764;2024-02-14T03:43:19;3.63;;;3.43;;
2434;SDS011;1228;51.022;6.764;2024-02-14T03:45:45;3.67;;;3.40;;
2434;SDS011;1228;51.022;6.764;2024-02-14T03:48:11;3.80;;;3.60;;
2434;SDS011;1228;51.022;6.764;2024-02-14T03:50:40;3.90;;;3.70;;
2434;SDS011;1228;51.022;6.764;2024-02-14T03:53:06;4.17;;;3.47;;
2434;SDS011;1228;51.022;6.764;2024-02-14T03:55:32;4.80;;;3.67;;
2434;SDS011;1228;51.022;6.764;2024-02-14T03:57:58;4.03;;;3.67;;
2434;SDS011;1228;51.022;6.764;2024-02-14T04:00:24;4.10;;;3.50;;
2434;SDS011;1228;51.022;6.764;2024-02-14T04:02:49;3.70;;;3.40;;
2434;SDS011;1228;51.022;6.764;2024-02-14T04:05:23;5.97;;;4.07;;
2434;SDS011;1228;51.022;6.764;2024-02-14T04:07:49;4.40;;;4.03;;
2434;SDS011;1228;51.022;6.764;2024-02-14T04:10:17;3.90;;;3.70;;
2434;SDS011;1228;51.022;6.764;2024-02-14T04:12:42;6.57;;;4.27;;
2434;SDS011;1228;51.022;6.764;2024-02-14T04:15:08;5.73;;;3.93;;
2434;SDS011;1228;51.022;6.764;2024-02-14T04:17:34;4.67;;;3.87;;
2434;SDS011;1228;51.022;6.764;2024-02-14T04:20:00;4.30;;;3.30;;
2434;SDS011;1228;51.022;6.764;2024-02-14T04:22:25;3.63;;;3.30;;
2434;SDS011;1228;51.022;6.764;2024-02-14T04:24:51;3.77;;;3.50;;
2434;SDS011;1228;51.022;6.764;2024-02-14T04:27:16;5.10;;;4.67;;
2434;SDS011;1228;51.022;6.764;2024-02-14T04:29:45;3.93;;;3.53;;
2434;SDS011;1228;51.022;6.764;2024-02-14T04:32:12;3.77;;;3.47;;
2434;SDS011;1228;51.022;6.764;2024-02-14T04:34:38;3.90;;;3.50;;
2434;SDS011;1228;51.022;6.764;2024-02-14T04:37:05;3.83;;;3.00;;
2434;SDS011;1228;51.022;6.764;2024-02-14T04:39:35;6.80;;;3.40;;
2434;SDS011;1228;51.022;6.764;2024-02-14T04:42:01;3.47;;;3.20;;
2434;SDS011;1228;51.022;6.764;2024-02-14T04:44:27;7.77;;;3.50;;
2434;SDS011;1228;51.022;6.764;2024-02-14T04:46:53;4.43;;;3.37;;
2434;SDS011;1228;51.022;6.764;2024-02-14T04:49:19;4.33;;;3.80;;
2434;SDS011;1228;51.022;6.764;2024-02-14T04:51:45;3.63;;;3.33;;
2434;SDS011;1228;51.022;6.764;2024-02-14T04:54:10;3.87;;;3.07;;
2434;SDS011;1228;51.022;6.764;2024-02-14T04:56:36;3.63;;;3.40;;
2434;SDS011;1228;51.022;6.764;2024-02-14T04:59:01;3.67;;;3.40;;
2434;SDS011;1228;51.022;6.764;2024-02-14T05:01:27;3.57;;;3.27;;
2434;SDS011;1228;51.022;6.764;2024-02-14T05:03:53;3.70;;;3.40;;
2434;SDS011;1228;51.022;6.764;2024-02-14T05:06:19;4.70;;;3.20;;
2434;SDS011;1228;51.022;6.764;2024-02-14T05:08:45;3.70;;;3.40;;
2434;SDS011;1228;51.022;6.764;2024-02-14T05:11:10;3.73;;;3.23;;
2434;SDS011;1228;51.022;6.764;2024-02-14T05:13:36;3.77;;;3.57;;
2434;SDS011;1228;51.022;6.764;2024-02-14T05:16:03;5.83;;;3.57;;
2434;SDS011;1228;51.022;6.764;2024-02-14T05:18:29;3.40;;;3.20;;
2434;SDS011;1228;51.022;6.764;2024-02-14T05:20:55;3.10;;;2.90;;
2434;SDS011;1228;51.022;6.764;2024-02-14T05:23:21;3.87;;;3.50;;
2434;SDS011;1228;51.022;6.764;2024-02-14T05:25:46;3.93;;;3.60;;
2434;SDS011;1228;51.022;6.764;2024-02-14T05:28:13;3.80;;;3.50;;
2434;SDS011;1228;51.022;6.764;2024-02-14T05:30:40;3.70;;;3.47;;
2434;SDS011;1228;51.022;6.764;2024-02-14T05:33:06;4.50;;;4.10;;
2434;SDS011;1228;51.022;6.764;2024-02-14T05:35:31;4.33;;;3.93;;
2434;SDS011;1228;51.022;6.764;2024-02-14T05:37:57;3.73;;;3.50;;
2434;SDS011;1228;51.022;6.764;2024-02-14T05:40:22;3.77;;;3.47;;
2434;SDS011;1228;51.022;6.764;2024-02-14T05:42:50;4.07;;;3.77;;
2434;SDS011;1228;51.022;6.764;2024-02-14T05:45:16;4.97;;;4.40;;
2434;SDS011;1228;51.022;6.764;2024-02-14T05:47:42;3.77;;;3.50;;
2434;SDS011;1228;51.022;6.764;2024-02-14T05:50:08;3.87;;;3.63;;
2434;SDS011;1228;51.022;6.764;2024-02-14T05:52:34;4.07;;;3.80;;
2434;SDS011;1228;51.022;6.764;2024-02-14T05:54:59;4.23;;;3.97;;
2434;SDS011;1228;51.022;6.764;2024-02-14T05:57:25;3.90;;;3.60;;
2434;SDS011;1228;51.022;6.764;2024-02-14T05:59:51;4.50;;;4.13;;
2434;SDS011;1228;51.022;6.764;2024-02-14T06:02:17;4.07;;;3.87;;
2434;SDS011;1228;51.022;6.764;2024-02-14T06:04:42;4.03;;;3.83;;
2434;SDS011;1228;51.022;6.764;2024-02-14T06:07:08;4.00;;;3.80;;
2434;SDS011;1228;51.022;6.764;2024-02-14T06:09:36;3.93;;;3.63;;
2434;SDS011;1228;51.022;6.764;2024-02-14T06:12:01;4.23;;;3.70;;
2434;SDS011;1228;51.022;6.764;2024-02-14T06:14:27;3.60;;;3.30;;
2434;SDS011;1228;51.022;6.764;2024-02-14T06:16:55;4.00;;;3.70;;
2434;SDS011;1228;51.022;6.764;2024-02-14T06:19:21;3.50;;;3.30;;
2434;SDS011;1228;51.022;6.764;2024-02-14T06:21:47;4.00;;;3.70;;
2434;SDS011;1228;51.022;6.764;2024-02-14T06:24:13;4.10;;;3.80;;
2434;SDS011;1228;51.022;6.764;2024-02-14T06:26:39;4.20;;;3.90;;
2434;SDS011;1228;51.022;6.764;2024-02-14T06:29:04;3.57;;;3.37;;
2434;SDS011;1228;51.022;6.764;2024-02-14T06:31:30;4.20;;;3.80;;
2434;SDS011;1228;51.022;6.764;2024-02-14T06:33:55;5.60;;;3.90;;
2434;SDS011;1228;51.022;6.764;2024-02-14T06:36:21;4.63;;;4.23;;
2434;SDS011;1228;51.022;6.764;2024-02-14T06:38:47;4.00;;;3.67;;
2434;SDS011;1228;51.022;6.764;2024-02-14T06:41:13;3.60;;;3.40;;
2434;SDS011;1228;51.022;6.764;2024-02-14T06:43:38;4.03;;;3.73;;
2434;SDS011;1228;51.022;6.764;2024-02-14T06:46:07;3.90;;;3.60;;
2434;SDS011;1228;51.022;6.764;2024-02-14T06:48:33;3.80;;;3.50;;
2434;SDS011;1228;51.022;6.764;2024-02-14T06:50:59;4.10;;;3.70;;
2434;SDS011;1228;51.022;6.764;2024-02-14T06:53:24;3.70;;;3.40;;
2434;SDS011;1228;51.022;6.764;2024-02-14T06:55:50;3.43;;;3.23;;
2434;SDS011;1228;51.022;6.764;2024-02-14T06:58:15;3.77;;;3.40;;
2434;SDS011;1228;51.022;6.764;2024-02-14T07:00:41;3.70;;;3.40;;
2434;SDS011;1228;51.022;6.764;2024-02-14T07:03:07;3.63;;;3.33;;
2434;SDS011;1228;51.022;6.764;2024-02-14T07:05:32;3.73;;;3.43;;
2434;SDS011;1228;51.022;6.764;2024-02-14T07:07:58;5.77;;;3.50;;
2434;SDS011;1228;51.022;6.764;2024-02-14T07:10:23;3.67;;;3.40;;
2434;SDS011;1228;51.022;6.764;2024-02-14T07:12:49;3.33;;;3.13;;
2434;SDS011;1228;51.022;6.764;2024-02-14T07:15:15;3.40;;;3.20;;
2434;SDS011;1228;51.022;6.764;2024-02-14T07:17:42;3.87;;;3.57;;
2434;SDS011;1228;51.022;6.764;2024-02-14T07:20:07;3.40;;;3.20;;
2434;SDS011;1228;51.022;6.764;2024-02-14T07:22:34;3.43;;;3.23;;
2434;SDS011;1228;51.022;6.764;2024-02-14T07:25:00;3.23;;;3.03;;
2434;SDS011;1228;51.022;6.764;2024-02-14T07:27:27;3.23;;;3.03;;
2434;SDS011;1228;51.022;6.764;2024-02-14T07:29:52;3.50;;;3.20;;
2434;SDS011;1228;51.022;6.764;2024-02-14T07:32:18;4.30;;;3.20;;
2434;SDS011;1228;51.022;6.764;2024-02-14T07:34:44;4.00;;;3.17;;
2434;SDS011;1228;51.022;6.764;2024-02-14T07:37:09;3.10;;;2.90;;
2434;SDS011;1228;51.022;6.764;2024-02-14T07:39:35;3.33;;;3.13;;
2434;SDS011;1228;51.022;6.764;2024-02-14T07:42:01;3.60;;;3.20;;
2434;SDS011;1228;51.022;6.764;2024-02-14T07:44:27;3.60;;;3.37;;
2434;SDS011;1228;51.022;6.764;2024-02-14T07:46:53;3.70;;;3.40;;
2434;SDS011;1228;51.022;6.764;2024-02-14T07:49:19;3.80;;;3.60;;
2434;SDS011;1228;51.022;6.764;2024-02-14T07:51:45;3.70;;;3.40;;
2434;SDS011;1228;51.022;6.764;2024-02-14T07:54:11;4.60;;;3.20;;
2434;SDS011;1228;51.022;6.764;2024-02-14T07:56:36;3.83;;;3.53;;
2434;SDS011;1228;51.022;6.764;2024-02-14T07:59:02;3.53;;;3.30;;
2434;SDS011;1228;51.022;6.764;2024-02-14T08:01:29;3.67;;;3.20;;
2434;SDS011;1228;51.022;6.764;2024-02-14T08:03:55;3.37;;;3.17;;
2434;SDS011;1228;51.022;6.764;2024-02-14T08:06:21;3.80;;;3.50;;
2434;SDS011;1228;51.022;6.764;2024-02-14T08:08:46;3.60;;;3.30;;
2434;SDS011;1228;51.022;6.764;2024-02-14T08:11:16;3.37;;;3.10;;
2434;SDS011;1228;51.022;6.764;2024-02-14T08:13:42;3.57;;;3.37;;
2434;SDS011;1228;51.022;6.764;2024-02-14T08:16:08;4.67;;;3.53;;
2434;SDS011;1228;51.022;6.764;2024-02-14T08:18:34;3.23;;;3.03;;
2434;SDS011;1228;51.022;6.764;2024-02-14T08:21:00;3.23;;;3.03;;
2434;SDS011;1228;51.022;6.764;2024-02-14T08:23:25;3.10;;;2.90;;
2434;SDS011;1228;51.022;6.764;2024-02-14T08:25:51;3.13;;;2.93;;
2434;SDS011;1228;51.022;6.764;2024-02-14T08:28:17;3.53;;;3.23;;
2434;SDS011;1228;51.022;6.764;2024-02-14T08:30:43;3.80;;;3.03;;
2434;SDS011;1228;51.022;6.764;2024-02-14T08:33:09;3.60;;;3.40;;
2434;SDS011;1228;51.022;6.764;2024-02-14T08:35:35;3.40;;;3.10;;
2434;SDS011;1228;51.022;6.764;2024-02-14T08:38:01;3.50;;;3.20;;
2434;SDS011;1228;51.022;6.764;2024-02-14T08:40:27;3.20;;;2.90;;
2434;SDS011;1228;51.022;6.764;2024-02-14T08:42:53;3.50;;;3.23;;
2434;SDS011;1228;51.022;6.764;2024-02-14T08:45:18;3.50;;;3.20;;
2434;SDS011;1228;51.022;6.764;2024-02-14T08:47:44;3.20;;;3.00;;
2434;SDS011;1228;51.022;6.764;2024-02-14T08:50:10;3.27;;;3.00;;
2434;SDS011;1228;51.022;6.764;2024-02-14T08:52:36;3.37;;;3.17;;
2434;SDS011;1228;51.022;6.764;2024-02-14T08:55:03;4.43;;;3.20;;
2434;SDS011;1228;51.022;6.764;2024-02-14T08:57:30;3.30;;;3.00;;
2434;SDS011;1228;51.022;6.764;2024-02-14T08:59:56;5.27;;;3.10;;
2434;SDS011;1228;51.022;6.764;2024-02-14T09:02:22;3.30;;;3.10;;
2434;SDS011;1228;51.022;6.764;2024-02-14T09:04:48;3.50;;;3.20;;
2434;SDS011;1228;51.022;6.764;2024-02-14T09:07:14;3.57;;;3.27;;
2434;SDS011;1228;51.022;6.764;2024-02-14T09:09:41;6.73;;;3.03;;
2434;SDS011;1228;51.022;6.764;2024-02-14T09:12:06;3.20;;;2.90;;
2434;SDS011;1228;51.022;6.764;2024-02-14T09:14:32;3.50;;;2.80;;
2434;SDS011;1228;51.022;6.764;2024-02-14T09:16:58;2.97;;;2.77;;
2434;SDS011;1228;51.022;6.764;2024-02-14T09:19:23;4.60;;;2.60;;
2434;SDS011;1228;51.022;6.764;2024-02-14T09:21:50;2.90;;;2.63;;
2434;SDS011;1228;51.022;6.764;2024-02-14T09:24:16;3.77;;;2.60;;
2434;SDS011;1228;51.022;6.764;2024-02-14T09:26:41;3.10;;;2.63;;
2434;SDS011;1228;51.022;6.764;2024-02-14T09:29:08;2.93;;;2.73;;
2434;SDS011;1228;51.022;6.764;2024-02-14T09:31:35;2.80;;;2.60;;
2434;SDS011;1228;51.022;6.764;2024-02-14T09:34:01;3.67;;;2.90;;
2434;SDS011;1228;51.022;6.764;2024-02-14T09:36:28;2.73;;;2.53;;
2434;SDS011;1228;51.022;6.764;2024-02-14T09:38:54;3.03;;;2.73;;
2434;SDS011;1228;51.022;6.764;2024-02-14T09:43:45;3.03;;;2.73;;
2434;SDS011;1228;51.022;6.764;2024-02-14T09:46:14;3.00;;;2.80;;
2434;SDS011;1228;51.022;6.764;2024-02-14T09:48:44;4.00;;;3.13;;
2434;SDS011;1228;51.022;6.764;2024-02-14T09:51:10;5.13;;;3.20;;
2434;SDS011;1228;51.022;6.764;2024-02-14T09:53:38;3.00;;;2.80;;
2434;SDS011;1228;51.022;6.764;2024-02-14T09:56:05;3.00;;;2.80;;
2434;SDS011;1228;51.022;6.764;2024-02-14T09:58:31;3.60;;;3.03;;
2434;SDS011;1228;51.022;6.764;2024-02-14T10:00:57;3.87;;;3.10;;
2434;SDS011;1228;51.022;6.764;2024-02-14T10:03:23;3.97;;;3.20;;
2434;SDS011;1228;51.022;6.764;2024-02-14T10:05:49;3.23;;;2.93;;
2434;SDS011;1228;51.022;6.764;2024-02-14T10:08:15;4.73;;;3.07;;
2434;SDS011;1228;51.022;6.764;2024-02-14T10:10:41;5.37;;;3.07;;
2434;SDS011;1228;51.022;6.764;2024-02-14T10:13:06;5.00;;;3.10;;
2434;SDS011;1228;51.022;6.764;2024-02-14T10:15:32;3.83;;;3.00;;
2434;SDS011;1228;51.022;6.764;2024-02-14T10:17:58;3.27;;;2.97;;
2434;SDS011;1228;51.022;6.764;2024-02-14T10:20:26;3.80;;;3.50;;
2434;SDS011;1228;51.022;6.764;2024-02-14T10:22:51;6.73;;;3.17;;
2434;SDS011;1228;51.022;6.764;2024-02-14T10:25:25;4.87;;;3.57;;
2434;SDS011;1228;51.022;6.764;2024-02-14T10:27:50;3.40;;;3.10;;
2434;SDS011;1228;51.022;6.764;2024-02-14T10:30:16;3.73;;;3.40;;
2434;SDS011;1228;51.022;6.764;2024-02-14T10:32:42;5.27;;;3.40;;
2434;SDS011;1228;51.022;6.764;2024-02-14T10:35:13;4.13;;;2.90;;
2434;SDS011;1228;51.022;6.764;2024-02-14T10:37:40;3.63;;;3.30;;
2434;SDS011;1228;51.022;6.764;2024-02-14T10:40:06;7.23;;;3.30;;
2434;SDS011;1228;51.022;6.764;2024-02-14T10:42:34;2.90;;;2.70;;
2434;SDS011;1228;51.022;6.764;2024-02-14T10:45:00;4.07;;;3.10;;
2434;SDS011;1228;51.022;6.764;2024-02-14T10:47:30;4.97;;;3.07;;
2434;SDS011;1228;51.022;6.764;2024-02-14T10:50:00;3.00;;;2.80;;
2434;SDS011;1228;51.022;6.764;2024-02-14T10:52:34;4.00;;;3.20;;
2434;SDS011;1228;51.022;6.764;2024-02-14T10:55:04;3.90;;;2.83;;
2434;SDS011;1228;51.022;6.764;2024-02-14T10:57:30;3.57;;;3.27;;
2434;SDS011;1228;51.022;6.764;2024-02-14T10:59:57;3.23;;;2.93;;
2434;SDS011;1228;51.022;6.764;2024-02-14T11:02:26;4.20;;;3.57;;
2434;SDS011;1228;51.022;6.764;2024-02-14T11:04:55;6.97;;;3.60;;
2434;SDS011;1228;51.022;6.764;2024-02-14T11:07:21;5.13;;;3.30;;
2434;SDS011;1228;51.022;6.764;2024-02-14T11:10:05;3.63;;;3.37;;
2434;SDS011;1228;51.022;6.764;2024-02-14T11:12:35;4.70;;;3.40;;
2434;SDS011;1228;51.022;6.764;2024-02-14T11:15:19;5.50;;;3.50;;
2434;SDS011;1228;51.022;6.764;2024-02-14T11:18:03;6.90;;;3.57;;
2434;SDS011;1228;51.022;6.764;2024-02-14T11:20:34;7.37;;;3.50;;
2434;SDS011;1228;51.022;6.764;2024-02-14T11:23:01;3.87;;;3.37;;
2434;SDS011;1228;51.022;6.764;2024-02-14T11:25:29;4.50;;;3.00;;
2434;SDS011;1228;51.022;6.764;2024-02-14T11:28:17;3.37;;;3.07;;
2434;SDS011;1228;51.022;6.764;2024-02-14T11:30:49;3.53;;;2.80;;
2434;SDS011;1228;51.022;6.764;2024-02-14T11:35:40;3.17;;;2.87;;
2434;SDS011;1228;51.022;6.764;2024-02-14T11:38:07;4.37;;;2.90;;
2434;SDS011;1228;51.022;6.764;2024-02-14T11:40:34;2.87;;;2.60;;
2434;SDS011;1228;51.022;6.764;2024-02-14T11:43:04;3.00;;;2.70;;
2434;SDS011;1228;51.022;6.764;2024-02-14T11:45:30;2.53;;;2.40;;
2434;SDS011;1228;51.022;6.764;2024-02-14T11:47:56;2.50;;;2.40;;
2434;SDS011;1228;51.022;6.764;2024-02-14T11:50:21;2.90;;;2.70;;
2434;SDS011;1228;51.022;6.764;2024-02-14T11:52:47;3.00;;;2.70;;
2434;SDS011;1228;51.022;6.764;2024-02-14T11:55:13;3.07;;;2.80;;
2434;SDS011;1228;51.022;6.764;2024-02-14T11:57:42;3.07;;;2.87;;
2434;SDS011;1228;51.022;6.764;2024-02-14T12:00:08;3.37;;;2.97;;
2434;SDS011;1228;51.022;6.764;2024-02-14T12:02:34;3.00;;;2.80;;
2434;SDS011;1228;51.022;6.764;2024-02-14T12:05:00;3.50;;;2.90;;
2434;SDS011;1228;51.022;6.764;2024-02-14T12:07:29;3.13;;;2.73;;
2434;SDS011;1228;51.022;6.764;2024-02-14T12:09:55;2.90;;;2.60;;
2434;SDS011;1228;51.022;6.764;2024-02-14T12:12:21;2.90;;;2.70;;
2434;SDS011;1228;51.022;6.764;2024-02-14T12:14:51;4.23;;;2.70;;
2434;SDS011;1228;51.022;6.764;2024-02-14T12:17:17;4.43;;;2.70;;
2434;SDS011;1228;51.022;6.764;2024-02-14T12:19:47;3.57;;;2.70;;
2434;SDS011;1228;51.022;6.764;2024-02-14T12:22:13;3.67;;;2.50;;
2434;SDS011;1228;51.022;6.764;2024-02-14T12:24:45;3.00;;;2.73;;
2434;SDS011;1228;51.022;6.764;2024-02-14T12:27:13;3.20;;;2.40;;
2434;SDS011;1228;51.022;6.764;2024-02-14T12:29:41;2.50;;;2.30;;
2434;SDS011;1228;51.022;6.764;2024-02-14T12:32:10;3.43;;;2.40;;
2434;SDS011;1228;51.022;6.764;2024-02-14T12:34:37;2.70;;;2.50;;
2434;SDS011;1228;51.022;6.764;2024-02-14T12:37:02;4.60;;;2.80;;
2434;SDS011;1228;51.022;6.764;2024-02-14T12:39:28;3.00;;;2.80;;
2434;SDS011;1228;51.022;6.764;2024-02-14T12:41:54;2.90;;;2.70;;
2434;SDS011;1228;51.022;6.764;2024-02-14T12:44:20;2.97;;;2.87;;
2434;SDS011;1228;51.022;6.764;2024-02-14T12:46:46;4.90;;;2.60;;
2434;SDS011;1228;51.022;6.764;2024-02-14T12:49:12;2.87;;;2.70;;
2434;SDS011;1228;51.022;6.764;2024-02-14T12:51:37;3.30;;;2.30;;
2434;SDS011;1228;51.022;6.764;2024-02-14T12:54:03;2.60;;;2.50;;
2434;SDS011;1228;51.022;6.764;2024-02-14T12:56:30;2.30;;;2.20;;
2434;SDS011;1228;51.022;6.764;2024-02-14T12:58:56;2.73;;;2.63;;
2434;SDS011;1228;51.022;6.764;2024-02-14T13:01:24;2.50;;;2.40;;
2434;SDS011;1228;51.022;6.764;2024-02-14T13:03:50;2.30;;;2.20;;
2434;SDS011;1228;51.022;6.764;2024-02-14T13:06:15;2.30;;;2.20;;
2434;SDS011;1228;51.022;6.764;2024-02-14T13:08:41;2.70;;;2.40;;
2434;SDS011;1228;51.022;6.764;2024-02-14T13:11:07;2.57;;;2.47;;
2434;SDS011;1228;51.022;6.764;2024-02-14T13:13:36;2.47;;;2.37;;
2434;SDS011;1228;51.022;6.764;2024-02-14T13:16:01;2.60;;;2.50;;
2434;SDS011;1228;51.022;6.764;2024-02-14T13:18:27;2.43;;;2.30;;
2434;SDS011;1228;51.022;6.764;2024-02-14T13:20:52;2.30;;;2.20;;
2434;SDS011;1228;51.022;6.764;2024-02-14T13:23:24;2.40;;;2.30;;
2434;SDS011;1228;51.022;6.764;2024-02-14T13:25:50;2.50;;;2.40;;
2434;SDS011;1228;51.022;6.764;2024-02-14T13:28:16;2.60;;;2.50;;
2434;SDS011;1228;51.022;6.764;2024-02-14T13:30:42;2.40;;;2.30;;
2434;SDS011;1228;51.022;6.764;2024-02-14T13:33:08;3.60;;;2.80;;
2434;SDS011;1228;51.022;6.764;2024-02-14T13:35:36;2.73;;;2.53;;
2434;SDS011;1228;51.022;6.764;2024-02-14T13:38:04;2.60;;;2.50;;
2434;SDS011;1228;51.022;6.764;2024-02-14T13:40:34;2.83;;;2.63;;
2434;SDS011;1228;51.022;6.764;2024-02-14T13:43:00;3.07;;;2.70;;
2434;SDS011;1228;51.022;6.764;2024-02-14T13:45:26;3.07;;;2.83;;
2434;SDS011;1228;51.022;6.764;2024-02-14T13:48:04;4.30;;;3.13;;
2434;SDS011;1228;51.022;6.764;2024-02-14T13:50:30;3.17;;;2.97;;
2434;SDS011;1228;51.022;6.764;2024-02-14T13:52:55;3.00;;;2.80;;
2434;SDS011;1228;51.022;6.764;2024-02-14T13:55:21;3.93;;;3.63;;
2434;SDS011;1228;51.022;6.764;2024-02-14T13:57:46;3.53;;;3.33;;
2434;SDS011;1228;51.022;6.764;2024-02-14T14:00:12;4.37;;;3.97;;
2434;SDS011;1228;51.022;6.764;2024-02-14T14:02:38;3.53;;;3.33;;
2434;SDS011;1228;51.022;6.764;2024-02-14T14:05:10;8.03;;;7.23;;
2434;SDS011;1228;51.022;6.764;2024-02-14T14:07:36;4.77;;;4.47;;
2434;SDS011;1228;51.022;6.764;2024-02-14T14:10:05;3.73;;;3.20;;
2434;SDS011;1228;51.022;6.764;2024-02-14T14:12:32;3.40;;;3.20;;
2434;SDS011;1228;51.022;6.764;2024-02-14T14:14:58;3.17;;;2.97;;
2434;SDS011;1228;51.022;6.764;2024-02-14T14:17:24;3.10;;;2.90;;
2434;SDS011;1228;51.022;6.764;2024-02-14T14:19:51;3.00;;;2.80;;
2434;SDS011;1228;51.022;6.764;2024-02-14T14:22:18;3.00;;;2.90;;
2434;SDS011;1228;51.022;6.764;2024-02-14T14:24:43;3.20;;;3.00;;
2434;SDS011;1228;51.022;6.764;2024-02-14T14:27:09;3.20;;;3.00;;
2434;SDS011;1228;51.022;6.764;2024-02-14T14:29:38;3.30;;;2.87;;
2434;SDS011;1228;51.022;6.764;2024-02-14T14:32:06;3.37;;;3.20;;
2434;SDS011;1228;51.022;6.764;2024-02-14T14:34:32;3.53;;;3.23;;
2434;SDS011;1228;51.022;6.764;2024-02-14T14:36:58;3.40;;;3.27;;
2434;SDS011;1228;51.022;6.764;2024-02-14T14:39:24;3.03;;;2.93;;
2434;SDS011;1228;51.022;6.764;2024-02-14T14:41:49;3.67;;;3.30;;
2434;SDS011;1228;51.022;6.764;2024-02-14T14:44:17;4.77;;;4.37;;
2434;SDS011;1228;51.022;6.764;2024-02-14T14:46:42;3.70;;;3.40;;
2434;SDS011;1228;51.022;6.764;2024-02-14T14:49:09;3.70;;;3.40;;
2434;SDS011;1228;51.022;6.764;2024-02-14T14:51:34;4.10;;;3.80;;
2434;SDS011;1228;51.022;6.764;2024-02-14T14:54:01;3.60;;;3.40;;
2434;SDS011;1228;51.022;6.764;2024-02-14T14:56:26;3.53;;;3.23;;
2434;SDS011;1228;51.022;6.764;2024-02-14T14:58:52;3.93;;;3.70;;
2434;SDS011;1228;51.022;6.764;2024-02-14T15:01:18;4.63;;;4.33;;
2434;SDS011;1228;51.022;6.764;2024-02-14T15:03:44;3.40;;;3.20;;
2434;SDS011;1228;51.022;6.764;2024-02-14T15:06:10;5.50;;;3.47;;
2434;SDS011;1228;51.022;6.764;2024-02-14T15:08:37;3.83;;;3.60;;
2434;SDS011;1228;51.022;6.764;2024-02-14T15:11:03;3.47;;;3.27;;
2434;SDS011;1228;51.022;6.764;2024-02-14T15:13:29;3.00;;;2.80;;
2434;SDS011;1228;51.022;6.764;2024-02-14T15:15:56;3.87;;;3.47;;